sensor_id;sensor_type;location;lat;lon;timestamp;temperature;humidity
44647;DHT22;56315;-33.902;151.160;2023-03-01T00:01:23;35.10;98.80
44647;DHT22;56315;-33.902;151.160;2023-03-01T00:03:51;35.50;98.80
44647;DHT22;56315;-33.902;151.160;2023-03-01T00:06:19;35.90;97.40
44647;DHT22;56315;-33.902;151.160;2023-03-01T00:08:47;36.20;97.40
44647;DHT22;56315;-33.902;151.160;2023-03-01T00:11:24;36.30;96.10
44647;DHT22;56315;-33.902;151.160;2023-03-01T00:13:54;36.10;96.40
44647;DHT22;56315;-33.902;151.160;2023-03-01T00:16:37;36.30;96.20
44647;DHT22;56315;-33.902;151.160;2023-03-01T00:19:14;36.70;95.90
44647;DHT22;56315;-33.902;151.160;2023-03-01T00:21:43;37.00;96.30
44647;DHT22;56315;-33.902;151.160;2023-03-01T00:24:10;37.30;95.40
44647;DHT22;56315;-33.902;151.160;2023-03-01T00:26:38;37.00;95.80
44647;DHT22;56315;-33.902;151.160;2023-03-01T00:29:06;37.00;95.30
44647;DHT22;56315;-33.902;151.160;2023-03-01T00:31:34;36.80;95.40
44647;DHT22;56315;-33.902;151.160;2023-03-01T00:34:04;36.60;95.30
44647;DHT22;56315;-33.902;151.160;2023-03-01T00:36:37;36.50;95.00
44647;DHT22;56315;-33.902;151.160;2023-03-01T00:39:05;36.40;95.50
44647;DHT22;56315;-33.902;151.160;2023-03-01T00:41:32;36.60;95.20
44647;DHT22;56315;-33.902;151.160;2023-03-01T00:44:00;36.20;95.20
44647;DHT22;56315;-33.902;151.160;2023-03-01T00:46:26;35.80;96.30
44647;DHT22;56315;-33.902;151.160;2023-03-01T00:48:53;35.00;96.70
44647;DHT22;56315;-33.902;151.160;2023-03-01T00:51:21;34.80;98.10
44647;DHT22;56315;-33.902;151.160;2023-03-01T00:53:51;34.70;98.10
44647;DHT22;56315;-33.902;151.160;2023-03-01T00:56:18;34.40;98.00
44647;DHT22;56315;-33.902;151.160;2023-03-01T00:58:45;34.30;98.30
44647;DHT22;56315;-33.902;151.160;2023-03-01T01:01:16;34.20;98.80
44647;DHT22;56315;-33.902;151.160;2023-03-01T01:03:45;34.40;98.30
44647;DHT22;56315;-33.902;151.160;2023-03-01T01:06:15;34.30;98.10
44647;DHT22;56315;-33.902;151.160;2023-03-01T01:08:42;34.10;98.70
44647;DHT22;56315;-33.902;151.160;2023-03-01T01:11:09;34.00;98.30
44647;DHT22;56315;-33.902;151.160;2023-03-01T01:13:36;34.20;98.80
44647;DHT22;56315;-33.902;151.160;2023-03-01T01:16:04;34.20;98.50
44647;DHT22;56315;-33.902;151.160;2023-03-01T01:18:30;33.80;98.70
44647;DHT22;56315;-33.902;151.160;2023-03-01T01:20:57;33.70;99.30
44647;DHT22;56315;-33.902;151.160;2023-03-01T01:23:24;33.20;99.00
44647;DHT22;56315;-33.902;151.160;2023-03-01T01:25:51;32.90;99.70
44647;DHT22;56315;-33.902;151.160;2023-03-01T01:28:17;33.00;99.80
44647;DHT22;56315;-33.902;151.160;2023-03-01T01:30:44;32.90;99.90
44647;DHT22;56315;-33.902;151.160;2023-03-01T01:33:11;32.90;99.90
44647;DHT22;56315;-33.902;151.160;2023-03-01T01:35:38;32.80;99.80
44647;DHT22;56315;-33.902;151.160;2023-03-01T01:38:05;32.70;99.80
44647;DHT22;56315;-33.902;151.160;2023-03-01T01:40:31;32.20;99.70
44647;DHT22;56315;-33.902;151.160;2023-03-01T01:42:58;31.80;99.90
44647;DHT22;56315;-33.902;151.160;2023-03-01T01:45:29;31.80;99.90
44647;DHT22;56315;-33.902;151.160;2023-03-01T01:48:01;31.90;99.70
44647;DHT22;56315;-33.902;151.160;2023-03-01T01:50:28;32.10;99.90
44647;DHT22;56315;-33.902;151.160;2023-03-01T01:53:08;32.30;99.50
44647;DHT22;56315;-33.902;151.160;2023-03-01T01:55:36;32.20;99.50
44647;DHT22;56315;-33.902;151.160;2023-03-01T01:58:04;32.10;99.00
44647;DHT22;56315;-33.902;151.160;2023-03-01T02:00:32;32.20;99.40
44647;DHT22;56315;-33.902;151.160;2023-03-01T02:03:03;32.10;99.70
44647;DHT22;56315;-33.902;151.160;2023-03-01T02:08:00;31.90;99.70
44647;DHT22;56315;-33.902;151.160;2023-03-01T02:10:27;31.60;99.50
44647;DHT22;56315;-33.902;151.160;2023-03-01T02:12:54;31.30;99.90
44647;DHT22;56315;-33.902;151.160;2023-03-01T02:15:23;31.50;99.40
44647;DHT22;56315;-33.902;151.160;2023-03-01T02:17:49;31.70;99.60
44647;DHT22;56315;-33.902;151.160;2023-03-01T02:20:21;31.70;99.20
44647;DHT22;56315;-33.902;151.160;2023-03-01T02:22:49;31.70;98.70
44647;DHT22;56315;-33.902;151.160;2023-03-01T02:27:54;31.90;99.40
44647;DHT22;56315;-33.902;151.160;2023-03-01T02:30:24;32.20;98.90
44647;DHT22;56315;-33.902;151.160;2023-03-01T02:32:53;32.40;98.70
44647;DHT22;56315;-33.902;151.160;2023-03-01T02:35:22;32.30;98.40
44647;DHT22;56315;-33.902;151.160;2023-03-01T02:37:49;32.20;98.00
44647;DHT22;56315;-33.902;151.160;2023-03-01T02:40:17;32.00;98.10
44647;DHT22;56315;-33.902;151.160;2023-03-01T02:42:53;31.80;98.90
44647;DHT22;56315;-33.902;151.160;2023-03-01T02:45:21;31.70;98.70
44647;DHT22;56315;-33.902;151.160;2023-03-01T02:47:48;31.50;99.00
44647;DHT22;56315;-33.902;151.160;2023-03-01T02:52:51;31.80;98.70
44647;DHT22;56315;-33.902;151.160;2023-03-01T02:55:20;32.10;98.70
44647;DHT22;56315;-33.902;151.160;2023-03-01T02:57:46;32.30;98.20
44647;DHT22;56315;-33.902;151.160;2023-03-01T03:00:21;32.30;98.50
44647;DHT22;56315;-33.902;151.160;2023-03-01T03:02:49;32.10;97.90
44647;DHT22;56315;-33.902;151.160;2023-03-01T03:05:26;32.00;98.90
44647;DHT22;56315;-33.902;151.160;2023-03-01T03:07:53;32.10;99.40
44647;DHT22;56315;-33.902;151.160;2023-03-01T03:10:27;32.00;99.20
44647;DHT22;56315;-33.902;151.160;2023-03-01T03:12:58;32.10;98.50
44647;DHT22;56315;-33.902;151.160;2023-03-01T03:15:27;32.10;99.10
44647;DHT22;56315;-33.902;151.160;2023-03-01T03:17:54;32.10;99.30
44647;DHT22;56315;-33.902;151.160;2023-03-01T03:20:23;32.00;99.30
44647;DHT22;56315;-33.902;151.160;2023-03-01T03:22:51;31.70;99.30
44647;DHT22;56315;-33.902;151.160;2023-03-01T03:25:18;31.60;99.70
44647;DHT22;56315;-33.902;151.160;2023-03-01T03:27:46;31.40;99.80
44647;DHT22;56315;-33.902;151.160;2023-03-01T03:30:15;31.30;99.90
44647;DHT22;56315;-33.902;151.160;2023-03-01T03:32:43;31.00;99.90
44647;DHT22;56315;-33.902;151.160;2023-03-01T03:35:19;30.90;99.90
44647;DHT22;56315;-33.902;151.160;2023-03-01T03:37:46;30.40;99.90
44647;DHT22;56315;-33.902;151.160;2023-03-01T03:40:50;30.10;99.90
44647;DHT22;56315;-33.902;151.160;2023-03-01T03:43:19;30.00;99.90
44647;DHT22;56315;-33.902;151.160;2023-03-01T03:45:47;29.90;99.90
44647;DHT22;56315;-33.902;151.160;2023-03-01T03:48:13;29.80;99.90
44647;DHT22;56315;-33.902;151.160;2023-03-01T03:50:40;29.80;99.90
44647;DHT22;56315;-33.902;151.160;2023-03-01T03:53:08;29.90;99.90
44647;DHT22;56315;-33.902;151.160;2023-03-01T03:55:35;29.70;99.90
44647;DHT22;56315;-33.902;151.160;2023-03-01T03:58:05;29.50;99.90
44647;DHT22;56315;-33.902;151.160;2023-03-01T04:00:37;29.50;99.90
44647;DHT22;56315;-33.902;151.160;2023-03-01T04:03:04;29.40;99.90
44647;DHT22;56315;-33.902;151.160;2023-03-01T04:05:31;29.20;99.90
44647;DHT22;56315;-33.902;151.160;2023-03-01T04:07:58;28.80;99.90
44647;DHT22;56315;-33.902;151.160;2023-03-01T04:10:28;28.30;99.90
44647;DHT22;56315;-33.902;151.160;2023-03-01T04:12:55;28.20;99.90
44647;DHT22;56315;-33.902;151.160;2023-03-01T04:15:23;28.20;99.90
44647;DHT22;56315;-33.902;151.160;2023-03-01T04:17:50;28.40;99.90
44647;DHT22;56315;-33.902;151.160;2023-03-01T04:20:18;28.50;99.90
44647;DHT22;56315;-33.902;151.160;2023-03-01T04:22:52;28.40;99.90
44647;DHT22;56315;-33.902;151.160;2023-03-01T04:25:19;28.40;99.90
44647;DHT22;56315;-33.902;151.160;2023-03-01T04:27:46;28.30;99.90
44647;DHT22;56315;-33.902;151.160;2023-03-01T04:30:12;28.20;99.90
44647;DHT22;56315;-33.902;151.160;2023-03-01T04:32:39;28.20;99.90
44647;DHT22;56315;-33.902;151.160;2023-03-01T04:35:06;28.40;99.90
44647;DHT22;56315;-33.902;151.160;2023-03-01T04:37:33;28.40;99.90
44647;DHT22;56315;-33.902;151.160;2023-03-01T04:40:01;28.40;99.90
44647;DHT22;56315;-33.902;151.160;2023-03-01T04:42:38;28.40;99.90
44647;DHT22;56315;-33.902;151.160;2023-03-01T04:45:05;28.50;99.90
44647;DHT22;56315;-33.902;151.160;2023-03-01T04:47:39;28.40;99.90
44647;DHT22;56315;-33.902;151.160;2023-03-01T04:50:06;28.30;99.90
44647;DHT22;56315;-33.902;151.160;2023-03-01T04:52:33;28.10;99.90
44647;DHT22;56315;-33.902;151.160;2023-03-01T04:55:00;27.90;99.90
44647;DHT22;56315;-33.902;151.160;2023-03-01T04:57:26;27.80;99.90
44647;DHT22;56315;-33.902;151.160;2023-03-01T04:59:53;27.80;99.90
44647;DHT22;56315;-33.902;151.160;2023-03-01T05:02:20;27.60;99.90
44647;DHT22;56315;-33.902;151.160;2023-03-01T05:04:46;27.50;99.90
44647;DHT22;56315;-33.902;151.160;2023-03-01T05:07:13;27.40;99.90
44647;DHT22;56315;-33.902;151.160;2023-03-01T05:09:47;27.30;99.90
44647;DHT22;56315;-33.902;151.160;2023-03-01T05:12:14;27.30;99.90
44647;DHT22;56315;-33.902;151.160;2023-03-01T05:14:41;27.20;99.90
44647;DHT22;56315;-33.902;151.160;2023-03-01T05:17:08;27.20;99.90
44647;DHT22;56315;-33.902;151.160;2023-03-01T05:19:34;26.90;99.90
44647;DHT22;56315;-33.902;151.160;2023-03-01T05:22:01;26.70;99.90
44647;DHT22;56315;-33.902;151.160;2023-03-01T05:24:30;26.60;99.90
44647;DHT22;56315;-33.902;151.160;2023-03-01T05:26:57;26.60;99.90
44647;DHT22;56315;-33.902;151.160;2023-03-01T05:29:24;26.40;99.90
44647;DHT22;56315;-33.902;151.160;2023-03-01T05:31:54;26.40;99.90
44647;DHT22;56315;-33.902;151.160;2023-03-01T05:34:25;26.60;99.90
44647;DHT22;56315;-33.902;151.160;2023-03-01T05:36:52;26.60;99.90
44647;DHT22;56315;-33.902;151.160;2023-03-01T05:39:19;26.50;99.90
44647;DHT22;56315;-33.902;151.160;2023-03-01T05:41:47;26.50;99.90
44647;DHT22;56315;-33.902;151.160;2023-03-01T05:44:14;26.50;99.90
44647;DHT22;56315;-33.902;151.160;2023-03-01T05:46:40;26.20;99.90
44647;DHT22;56315;-33.902;151.160;2023-03-01T05:49:07;26.10;99.90
44647;DHT22;56315;-33.902;151.160;2023-03-01T05:51:34;26.10;99.90
44647;DHT22;56315;-33.902;151.160;2023-03-01T05:54:00;25.90;99.90
44647;DHT22;56315;-33.902;151.160;2023-03-01T05:56:27;25.80;99.90
44647;DHT22;56315;-33.902;151.160;2023-03-01T05:58:55;25.70;99.90
44647;DHT22;56315;-33.902;151.160;2023-03-01T06:01:21;25.60;99.90
44647;DHT22;56315;-33.902;151.160;2023-03-01T06:03:48;25.40;99.90
44647;DHT22;56315;-33.902;151.160;2023-03-01T06:06:14;25.40;99.90
44647;DHT22;56315;-33.902;151.160;2023-03-01T06:08:41;25.40;99.90
44647;DHT22;56315;-33.902;151.160;2023-03-01T06:11:08;25.30;99.90
44647;DHT22;56315;-33.902;151.160;2023-03-01T06:13:34;25.30;99.90
44647;DHT22;56315;-33.902;151.160;2023-03-01T06:16:03;25.30;99.90
44647;DHT22;56315;-33.902;151.160;2023-03-01T06:18:30;25.40;99.90
44647;DHT22;56315;-33.902;151.160;2023-03-01T06:20:57;25.30;99.90
44647;DHT22;56315;-33.902;151.160;2023-03-01T06:23:23;25.20;99.90
44647;DHT22;56315;-33.902;151.160;2023-03-01T06:25:50;25.10;99.90
44647;DHT22;56315;-33.902;151.160;2023-03-01T06:28:17;25.10;99.90
44647;DHT22;56315;-33.902;151.160;2023-03-01T06:30:44;25.00;99.90
44647;DHT22;56315;-33.902;151.160;2023-03-01T06:33:11;25.00;99.90
44647;DHT22;56315;-33.902;151.160;2023-03-01T06:35:38;25.00;99.90
44647;DHT22;56315;-33.902;151.160;2023-03-01T06:38:05;25.00;99.90
44647;DHT22;56315;-33.902;151.160;2023-03-01T06:40:32;25.00;99.90
44647;DHT22;56315;-33.902;151.160;2023-03-01T06:43:01;24.90;99.90
44647;DHT22;56315;-33.902;151.160;2023-03-01T06:45:27;24.90;99.90
44647;DHT22;56315;-33.902;151.160;2023-03-01T06:48:00;24.90;99.90
44647;DHT22;56315;-33.902;151.160;2023-03-01T06:50:28;24.80;99.90
44647;DHT22;56315;-33.902;151.160;2023-03-01T06:52:58;24.70;99.90
44647;DHT22;56315;-33.902;151.160;2023-03-01T06:55:25;24.60;99.90
44647;DHT22;56315;-33.902;151.160;2023-03-01T06:57:58;24.60;99.90
44647;DHT22;56315;-33.902;151.160;2023-03-01T07:00:25;24.60;99.90
44647;DHT22;56315;-33.902;151.160;2023-03-01T07:02:51;24.50;99.90
44647;DHT22;56315;-33.902;151.160;2023-03-01T07:05:18;24.60;99.90
44647;DHT22;56315;-33.902;151.160;2023-03-01T07:07:45;24.60;99.90
44647;DHT22;56315;-33.902;151.160;2023-03-01T07:10:12;24.60;99.90
44647;DHT22;56315;-33.902;151.160;2023-03-01T07:12:39;24.70;99.90
44647;DHT22;56315;-33.902;151.160;2023-03-01T07:15:08;24.60;99.90
44647;DHT22;56315;-33.902;151.160;2023-03-01T07:17:35;24.50;99.90
44647;DHT22;56315;-33.902;151.160;2023-03-01T07:20:02;24.60;99.90
44647;DHT22;56315;-33.902;151.160;2023-03-01T07:22:29;24.60;99.90
44647;DHT22;56315;-33.902;151.160;2023-03-01T07:24:56;24.50;99.90
44647;DHT22;56315;-33.902;151.160;2023-03-01T07:27:22;24.60;99.90
44647;DHT22;56315;-33.902;151.160;2023-03-01T07:29:49;24.50;99.90
44647;DHT22;56315;-33.902;151.160;2023-03-01T07:32:16;24.40;99.90
44647;DHT22;56315;-33.902;151.160;2023-03-01T07:34:42;24.40;99.90
44647;DHT22;56315;-33.902;151.160;2023-03-01T07:37:09;24.40;99.90
44647;DHT22;56315;-33.902;151.160;2023-03-01T07:39:36;24.40;99.90
44647;DHT22;56315;-33.902;151.160;2023-03-01T07:42:02;24.30;99.90
44647;DHT22;56315;-33.902;151.160;2023-03-01T07:44:29;24.30;99.90
44647;DHT22;56315;-33.902;151.160;2023-03-01T07:46:56;24.30;99.90
44647;DHT22;56315;-33.902;151.160;2023-03-01T07:49:23;24.30;99.90
44647;DHT22;56315;-33.902;151.160;2023-03-01T07:51:52;24.30;99.90
44647;DHT22;56315;-33.902;151.160;2023-03-01T07:54:18;24.30;99.90
44647;DHT22;56315;-33.902;151.160;2023-03-01T07:56:45;24.30;99.90
44647;DHT22;56315;-33.902;151.160;2023-03-01T07:59:12;24.30;99.90
44647;DHT22;56315;-33.902;151.160;2023-03-01T08:01:38;24.30;99.90
44647;DHT22;56315;-33.902;151.160;2023-03-01T08:04:05;24.30;99.90
44647;DHT22;56315;-33.902;151.160;2023-03-01T08:06:34;24.30;99.90
44647;DHT22;56315;-33.902;151.160;2023-03-01T08:09:00;24.20;99.90
44647;DHT22;56315;-33.902;151.160;2023-03-01T08:11:27;24.10;99.90
44647;DHT22;56315;-33.902;151.160;2023-03-01T08:13:54;24.10;99.90
44647;DHT22;56315;-33.902;151.160;2023-03-01T08:16:22;24.00;99.90
44647;DHT22;56315;-33.902;151.160;2023-03-01T08:18:48;24.00;99.90
44647;DHT22;56315;-33.902;151.160;2023-03-01T08:21:16;23.90;99.90
44647;DHT22;56315;-33.902;151.160;2023-03-01T08:23:43;23.90;99.90
44647;DHT22;56315;-33.902;151.160;2023-03-01T08:26:14;23.90;99.90
44647;DHT22;56315;-33.902;151.160;2023-03-01T08:28:41;23.80;99.90
44647;DHT22;56315;-33.902;151.160;2023-03-01T08:31:22;23.80;99.90
44647;DHT22;56315;-33.902;151.160;2023-03-01T08:33:49;23.90;99.90
44647;DHT22;56315;-33.902;151.160;2023-03-01T08:36:24;23.80;99.90
44647;DHT22;56315;-33.902;151.160;2023-03-01T08:38:51;23.80;99.90
44647;DHT22;56315;-33.902;151.160;2023-03-01T08:41:17;23.80;99.90
44647;DHT22;56315;-33.902;151.160;2023-03-01T08:43:44;23.70;99.90
44647;DHT22;56315;-33.902;151.160;2023-03-01T08:46:11;23.70;99.90
44647;DHT22;56315;-33.902;151.160;2023-03-01T08:48:38;23.70;99.90
44647;DHT22;56315;-33.902;151.160;2023-03-01T08:51:23;23.70;99.90
44647;DHT22;56315;-33.902;151.160;2023-03-01T08:53:53;23.70;99.90
44647;DHT22;56315;-33.902;151.160;2023-03-01T08:56:19;23.70;99.90
44647;DHT22;56315;-33.902;151.160;2023-03-01T08:58:46;23.60;99.90
44647;DHT22;56315;-33.902;151.160;2023-03-01T09:01:15;23.60;99.90
44647;DHT22;56315;-33.902;151.160;2023-03-01T09:03:42;23.60;99.90
44647;DHT22;56315;-33.902;151.160;2023-03-01T09:06:09;23.60;99.90
44647;DHT22;56315;-33.902;151.160;2023-03-01T09:08:47;23.60;99.90
44647;DHT22;56315;-33.902;151.160;2023-03-01T09:11:16;23.70;99.90
44647;DHT22;56315;-33.902;151.160;2023-03-01T09:13:43;23.70;99.90
44647;DHT22;56315;-33.902;151.160;2023-03-01T09:16:11;23.80;99.90
44647;DHT22;56315;-33.902;151.160;2023-03-01T09:18:38;23.80;99.90
44647;DHT22;56315;-33.902;151.160;2023-03-01T09:21:05;23.90;99.90
44647;DHT22;56315;-33.902;151.160;2023-03-01T09:23:36;23.90;99.90
44647;DHT22;56315;-33.902;151.160;2023-03-01T09:26:05;24.00;99.90
44647;DHT22;56315;-33.902;151.160;2023-03-01T09:28:31;24.10;99.90
44647;DHT22;56315;-33.902;151.160;2023-03-01T09:30:59;24.10;99.90
44647;DHT22;56315;-33.902;151.160;2023-03-01T09:33:26;24.10;99.90
44647;DHT22;56315;-33.902;151.160;2023-03-01T09:35:59;24.10;99.90
44647;DHT22;56315;-33.902;151.160;2023-03-01T09:38:27;24.10;99.90
44647;DHT22;56315;-33.902;151.160;2023-03-01T09:40:54;24.10;99.90
44647;DHT22;56315;-33.902;151.160;2023-03-01T09:43:23;24.10;99.90
44647;DHT22;56315;-33.902;151.160;2023-03-01T09:45:51;24.20;99.90
44647;DHT22;56315;-33.902;151.160;2023-03-01T09:48:20;24.20;99.90
44647;DHT22;56315;-33.902;151.160;2023-03-01T09:50:50;24.10;99.90
44647;DHT22;56315;-33.902;151.160;2023-03-01T09:53:22;24.10;99.90
44647;DHT22;56315;-33.902;151.160;2023-03-01T09:58:29;24.10;99.90
44647;DHT22;56315;-33.902;151.160;2023-03-01T10:01:09;24.10;99.90
44647;DHT22;56315;-33.902;151.160;2023-03-01T10:03:39;24.10;99.90
44647;DHT22;56315;-33.902;151.160;2023-03-01T10:06:14;24.00;99.90
44647;DHT22;56315;-33.902;151.160;2023-03-01T10:08:43;24.10;99.90
44647;DHT22;56315;-33.902;151.160;2023-03-01T10:14:07;24.10;99.90
44647;DHT22;56315;-33.902;151.160;2023-03-01T10:16:52;24.10;99.90
44647;DHT22;56315;-33.902;151.160;2023-03-01T10:21:52;24.10;99.90
44647;DHT22;56315;-33.902;151.160;2023-03-01T10:24:19;24.00;99.90
44647;DHT22;56315;-33.902;151.160;2023-03-01T10:29:14;24.00;99.90
44647;DHT22;56315;-33.902;151.160;2023-03-01T10:34:12;24.00;99.90
44647;DHT22;56315;-33.902;151.160;2023-03-01T10:36:39;23.90;99.90
44647;DHT22;56315;-33.902;151.160;2023-03-01T10:39:14;23.90;99.90
44647;DHT22;56315;-33.902;151.160;2023-03-01T10:42:01;23.90;99.90
44647;DHT22;56315;-33.902;151.160;2023-03-01T10:44:47;23.90;99.90
44647;DHT22;56315;-33.902;151.160;2023-03-01T10:47:21;23.90;99.90
44647;DHT22;56315;-33.902;151.160;2023-03-01T10:50:00;24.00;99.90
44647;DHT22;56315;-33.902;151.160;2023-03-01T10:52:31;23.90;99.90
44647;DHT22;56315;-33.902;151.160;2023-03-01T10:55:43;23.90;99.90
44647;DHT22;56315;-33.902;151.160;2023-03-01T10:57:44;24.00;99.90
44647;DHT22;56315;-33.902;151.160;2023-03-01T11:02:51;23.80;99.90
44647;DHT22;56315;-33.902;151.160;2023-03-01T11:05:27;23.80;99.90
44647;DHT22;56315;-33.902;151.160;2023-03-01T11:08:00;23.80;99.90
44647;DHT22;56315;-33.902;151.160;2023-03-01T11:10:32;23.70;99.90
44647;DHT22;56315;-33.902;151.160;2023-03-01T11:13:06;23.60;99.90
44647;DHT22;56315;-33.902;151.160;2023-03-01T11:15:33;23.50;99.90
44647;DHT22;56315;-33.902;151.160;2023-03-01T11:18:00;23.50;99.90
44647;DHT22;56315;-33.902;151.160;2023-03-01T11:20:36;23.40;99.90
44647;DHT22;56315;-33.902;151.160;2023-03-01T11:23:09;23.40;99.90
44647;DHT22;56315;-33.902;151.160;2023-03-01T11:25:37;23.40;99.90
44647;DHT22;56315;-33.902;151.160;2023-03-01T11:28:05;23.30;99.90
44647;DHT22;56315;-33.902;151.160;2023-03-01T11:30:41;23.30;99.90
44647;DHT22;56315;-33.902;151.160;2023-03-01T11:33:13;23.30;99.90
44647;DHT22;56315;-33.902;151.160;2023-03-01T11:36:16;23.30;99.90
44647;DHT22;56315;-33.902;151.160;2023-03-01T11:38:35;23.30;99.90
44647;DHT22;56315;-33.902;151.160;2023-03-01T11:41:12;23.30;99.90
44647;DHT22;56315;-33.902;151.160;2023-03-01T11:43:48;23.20;99.90
44647;DHT22;56315;-33.902;151.160;2023-03-01T11:46:29;23.20;99.90
44647;DHT22;56315;-33.902;151.160;2023-03-01T11:49:18;23.20;99.90
44647;DHT22;56315;-33.902;151.160;2023-03-01T12:02:12;23.30;99.90
44647;DHT22;56315;-33.902;151.160;2023-03-01T12:18:08;23.30;99.90
44647;DHT22;56315;-33.902;151.160;2023-03-01T12:23:15;23.30;99.90
44647;DHT22;56315;-33.902;151.160;2023-03-01T12:28:24;23.30;99.90
44647;DHT22;56315;-33.902;151.160;2023-03-01T12:46:19;23.10;99.90
44647;DHT22;56315;-33.902;151.160;2023-03-01T12:49:22;23.10;99.90
44647;DHT22;56315;-33.902;151.160;2023-03-01T12:51:39;23.10;99.90
44647;DHT22;56315;-33.902;151.160;2023-03-01T12:54:16;23.10;99.90
44647;DHT22;56315;-33.902;151.160;2023-03-01T12:56:47;23.00;99.90
44647;DHT22;56315;-33.902;151.160;2023-03-01T13:01:56;23.10;99.90
44647;DHT22;56315;-33.902;151.160;2023-03-01T13:12:01;23.00;99.90
44647;DHT22;56315;-33.902;151.160;2023-03-01T13:17:00;23.00;99.90
44647;DHT22;56315;-33.902;151.160;2023-03-01T13:19:27;23.00;99.90
44647;DHT22;56315;-33.902;151.160;2023-03-01T13:21:58;23.00;99.90
44647;DHT22;56315;-33.902;151.160;2023-03-01T13:29:49;23.10;99.90
44647;DHT22;56315;-33.902;151.160;2023-03-01T13:32:26;23.20;99.90
44647;DHT22;56315;-33.902;151.160;2023-03-01T13:37:28;23.20;99.90
44647;DHT22;56315;-33.902;151.160;2023-03-01T13:39:56;23.20;99.90
44647;DHT22;56315;-33.902;151.160;2023-03-01T13:42:35;23.30;99.90
44647;DHT22;56315;-33.902;151.160;2023-03-01T13:45:04;23.30;99.90
44647;DHT22;56315;-33.902;151.160;2023-03-01T13:47:38;23.20;99.90
44647;DHT22;56315;-33.902;151.160;2023-03-01T13:50:05;23.20;99.90
44647;DHT22;56315;-33.902;151.160;2023-03-01T13:54:59;23.20;99.90
44647;DHT22;56315;-33.902;151.160;2023-03-01T13:57:30;23.20;99.90
44647;DHT22;56315;-33.902;151.160;2023-03-01T13:59:58;23.10;99.90
44647;DHT22;56315;-33.902;151.160;2023-03-01T14:02:25;23.20;99.90
44647;DHT22;56315;-33.902;151.160;2023-03-01T14:04:59;23.20;99.90
44647;DHT22;56315;-33.902;151.160;2023-03-01T14:07:27;23.20;99.90
44647;DHT22;56315;-33.902;151.160;2023-03-01T14:10:01;23.10;99.90
44647;DHT22;56315;-33.902;151.160;2023-03-01T14:20:39;23.10;99.90
44647;DHT22;56315;-33.902;151.160;2023-03-01T14:23:11;23.10;99.90
44647;DHT22;56315;-33.902;151.160;2023-03-01T14:25:38;23.10;99.90
44647;DHT22;56315;-33.902;151.160;2023-03-01T14:30:42;23.10;99.90
44647;DHT22;56315;-33.902;151.160;2023-03-01T14:35:58;23.00;99.90
44647;DHT22;56315;-33.902;151.160;2023-03-01T14:38:30;23.00;99.90
44647;DHT22;56315;-33.902;151.160;2023-03-01T14:40:58;23.00;99.90
44647;DHT22;56315;-33.902;151.160;2023-03-01T14:43:25;23.00;99.90
44647;DHT22;56315;-33.902;151.160;2023-03-01T14:45:52;22.90;99.90
44647;DHT22;56315;-33.902;151.160;2023-03-01T14:48:19;22.90;99.90
44647;DHT22;56315;-33.902;151.160;2023-03-01T14:50:46;22.90;99.90
44647;DHT22;56315;-33.902;151.160;2023-03-01T14:53:23;22.80;99.90
44647;DHT22;56315;-33.902;151.160;2023-03-01T14:55:54;22.80;99.90
44647;DHT22;56315;-33.902;151.160;2023-03-01T14:58:22;22.80;99.90
44647;DHT22;56315;-33.902;151.160;2023-03-01T15:00:53;22.70;99.90
44647;DHT22;56315;-33.902;151.160;2023-03-01T15:03:25;22.70;99.90
44647;DHT22;56315;-33.902;151.160;2023-03-01T15:05:52;22.60;99.90
44647;DHT22;56315;-33.902;151.160;2023-03-01T15:08:20;22.60;99.90
44647;DHT22;56315;-33.902;151.160;2023-03-01T15:10:59;22.50;99.90
44647;DHT22;56315;-33.902;151.160;2023-03-01T15:13:28;22.40;99.90
44647;DHT22;56315;-33.902;151.160;2023-03-01T15:16:02;22.40;99.90
44647;DHT22;56315;-33.902;151.160;2023-03-01T15:18:30;22.30;99.90
44647;DHT22;56315;-33.902;151.160;2023-03-01T15:21:05;22.30;99.90
44647;DHT22;56315;-33.902;151.160;2023-03-01T15:23:32;22.20;99.90
44647;DHT22;56315;-33.902;151.160;2023-03-01T15:25:58;22.20;99.90
44647;DHT22;56315;-33.902;151.160;2023-03-01T15:28:30;22.10;99.90
44647;DHT22;56315;-33.902;151.160;2023-03-01T15:31:02;22.10;99.90
44647;DHT22;56315;-33.902;151.160;2023-03-01T15:35:57;21.90;99.90
44647;DHT22;56315;-33.902;151.160;2023-03-01T15:38:25;21.80;99.90
44647;DHT22;56315;-33.902;151.160;2023-03-01T15:40:52;21.80;99.90
44647;DHT22;56315;-33.902;151.160;2023-03-01T15:43:39;21.80;99.90
44647;DHT22;56315;-33.902;151.160;2023-03-01T15:46:12;21.70;99.90
44647;DHT22;56315;-33.902;151.160;2023-03-01T15:48:44;21.70;99.90
44647;DHT22;56315;-33.902;151.160;2023-03-01T15:51:11;21.60;99.90
44647;DHT22;56315;-33.902;151.160;2023-03-01T15:53:39;21.60;99.90
44647;DHT22;56315;-33.902;151.160;2023-03-01T15:56:06;21.50;99.90
44647;DHT22;56315;-33.902;151.160;2023-03-01T15:58:35;21.50;99.90
44647;DHT22;56315;-33.902;151.160;2023-03-01T16:01:01;21.30;99.90
44647;DHT22;56315;-33.902;151.160;2023-03-01T16:03:28;21.30;99.90
44647;DHT22;56315;-33.902;151.160;2023-03-01T16:05:55;21.20;99.90
44647;DHT22;56315;-33.902;151.160;2023-03-01T16:08:21;21.20;99.90
44647;DHT22;56315;-33.902;151.160;2023-03-01T16:10:48;21.10;99.90
44647;DHT22;56315;-33.902;151.160;2023-03-01T16:13:16;21.10;99.90
44647;DHT22;56315;-33.902;151.160;2023-03-01T16:15:43;21.10;99.90
44647;DHT22;56315;-33.902;151.160;2023-03-01T16:18:10;21.10;99.90
44647;DHT22;56315;-33.902;151.160;2023-03-01T16:20:37;21.00;99.90
44647;DHT22;56315;-33.902;151.160;2023-03-01T16:23:05;20.90;99.90
44647;DHT22;56315;-33.902;151.160;2023-03-01T16:25:32;20.80;99.90
44647;DHT22;56315;-33.902;151.160;2023-03-01T16:32:50;20.80;99.90
44647;DHT22;56315;-33.902;151.160;2023-03-01T16:35:18;20.70;99.90
44647;DHT22;56315;-33.902;151.160;2023-03-01T16:37:46;20.80;99.90
44647;DHT22;56315;-33.902;151.160;2023-03-01T16:40:17;20.70;99.90
44647;DHT22;56315;-33.902;151.160;2023-03-01T16:42:44;20.70;99.90
44647;DHT22;56315;-33.902;151.160;2023-03-01T16:45:10;20.60;99.90
44647;DHT22;56315;-33.902;151.160;2023-03-01T16:50:08;20.50;99.90
44647;DHT22;56315;-33.902;151.160;2023-03-01T16:52:35;20.50;99.90
44647;DHT22;56315;-33.902;151.160;2023-03-01T16:55:02;20.40;99.90